Time;durP1;ratioP1;P1;durP2;ratioP2;P2;SDS_P1;SDS_P2;PMS_P1;PMS_P2;Temp;Humidity;BMP_temperature;BMP_pressure;BME280_temperature;BME280_humidity;BME280_pressure;Samples;Min_cycle;Max_cycle;Signal;HPM_P1;HPM_P2
2021/10/15 00:04:26;;;;;;;17.73;8.52;;;;;;;10.90;74.77;100561.31;8488632;33;20403;-78
2021/10/15 00:09:30;;;;;;;19.10;8.75;;;;;;;10.72;75.02;100552.03;8491364;34;20252;-76
2021/10/15 00:14:33;;;;;;;13.73;7.20;;;;;;;10.75;73.87;100560.72;8488515;34;20494;-77
2021/10/15 00:19:36;;;;;;;15.60;7.28;;;;;;;10.91;73.43;100546.91;8477991;34;20934;-78
2021/10/15 00:24:40;;;;;;;12.93;6.33;;;;;;;10.67;73.91;100543.47;8473476;34;20916;-75
2021/10/15 00:29:43;;;;;;;9.75;6.00;;;;;;;10.94;73.12;100538.63;8465015;34;20418;-77
2021/10/15 00:34:47;;;;;;;10.85;6.00;;;;;;;10.91;72.48;100535.28;8463271;33;20149;-76
2021/10/15 00:39:51;;;;;;;10.73;5.07;;;;;;;10.76;72.52;100526.63;8461989;34;20225;-76
2021/10/15 00:44:54;;;;;;;11.80;6.60;;;;;;;10.79;72.61;100524.56;8465028;33;20156;-76
2021/10/15 00:49:57;;;;;;;9.18;6.50;;;;;;;10.55;72.88;100518.44;8470890;34;20156;-76
2021/10/15 00:55:01;;;;;;;10.82;5.40;;;;;;;10.85;71.64;100501.72;8467764;33;20150;-77
2021/10/15 01:00:07;;;;;;;7.70;4.70;;;;;;;10.60;72.21;100505.50;8481889;34;20521;-77
2021/10/15 01:05:11;;;;;;;4.97;3.95;;;;;;;10.64;71.75;100485.50;8494469;34;20917;-77
2021/10/15 01:10:16;;;;;;;12.95;5.53;;;;;;;10.73;71.84;100482.06;8493287;34;20692;-78
2021/10/15 01:15:19;;;;;;;7.68;4.78;;;;;;;10.90;71.10;100464.56;8495979;33;20407;-78
2021/10/15 01:20:24;;;;;;;10.00;4.90;;;;;;;10.66;71.55;100458.50;8493879;34;20449;-78
2021/10/15 01:25:30;;;;;;;10.90;5.47;;;;;;;10.87;70.81;100451.38;8456809;33;20281;-76
2021/10/15 01:30:33;;;;;;;9.85;5.45;;;;;;;10.65;71.08;100424.56;8481016;34;20458;-78
2021/10/15 01:35:38;;;;;;;9.48;5.55;;;;;;;10.61;71.31;100430.19;8477898;33;20472;-78
2021/10/15 01:40:42;;;;;;;7.63;5.20;;;;;;;10.47;71.72;100432.25;8477710;34;20161;-77
2021/10/15 01:45:45;;;;;;;8.50;4.95;;;;;;;10.71;70.81;100429.44;8476717;33;20614;-77
2021/10/15 01:50:50;;;;;;;12.05;5.38;;;;;;;10.53;70.98;100427.25;8478470;34;20184;-77
2021/10/15 01:55:53;;;;;;;10.25;5.55;;;;;;;10.77;70.04;100402.91;8478021;33;20553;-76
2021/10/15 02:00:56;;;;;;;9.10;5.15;;;;;;;10.72;70.31;100409.63;8482097;34;20426;-76
2021/10/15 02:06:01;;;;;;;7.35;4.15;;;;;;;10.49;70.97;100398.06;8487846;33;20157;-76
2021/10/15 02:11:05;;;;;;;8.15;5.05;;;;;;;10.47;71.04;100386.59;8497419;34;20588;-77
2021/10/15 02:16:08;;;;;;;9.43;5.32;;;;;;;10.78;70.20;100375.06;8472694;33;20599;-76
2021/10/15 02:21:12;;;;;;;7.93;4.70;;;;;;;10.58;70.46;100370.47;8498153;34;20519;-79
2021/10/15 02:26:20;;;;;;;9.80;4.70;;;;;;;10.61;70.50;100386.31;8514642;28;20581;-77
2021/10/15 02:31:22;;;;;;;9.02;4.90;;;;;;;10.55;70.27;100370.72;8540216;33;20125;-76
2021/10/15 02:36:27;;;;;;;8.98;4.70;;;;;;;10.47;70.16;100370.47;8516636;33;20150;-76
2021/10/15 02:41:30;;;;;;;8.52;4.35;;;;;;;10.32;70.36;100362.69;8481734;34;20154;-76
2021/10/15 02:46:33;;;;;;;6.35;4.32;;;;;;;10.72;69.44;100348.69;8483267;33;20150;-76
2021/10/15 02:51:37;;;;;;;10.75;4.90;;;;;;;10.51;69.97;100350.47;8473414;34;20372;-77
2021/10/15 02:56:40;;;;;;;7.32;4.30;;;;;;;10.49;69.86;100345.22;8474242;33;20520;-77
2021/10/15 03:01:43;;;;;;;7.40;4.60;;;;;;;10.21;70.57;100348.44;8478006;34;20404;-76
2021/10/15 03:06:48;;;;;;;9.80;4.50;;;;;;;10.46;69.96;100336.56;8471759;33;20518;-76
2021/10/15 03:11:53;;;;;;;8.20;4.63;;;;;;;10.30;69.88;100320.81;8471316;33;20628;-77
2021/10/15 03:16:56;;;;;;;8.20;4.22;;;;;;;10.44;69.46;100322.38;8469957;33;20453;-76
2021/10/15 03:22:00;;;;;;;5.95;3.75;;;;;;;10.22;69.67;100325.97;8471822;34;20149;-76
2021/10/15 03:27:04;;;;;;;7.63;4.53;;;;;;;10.55;68.70;100325.91;8472629;33;20416;-77
2021/10/15 03:32:07;;;;;;;10.38;3.88;;;;;;;10.49;68.63;100320.19;8480175;33;20148;-77
2021/10/15 03:37:11;;;;;;;11.00;4.60;;;;;;;10.41;68.33;100323.50;8485851;33;20440;-76
2021/10/15 03:42:14;;;;;;;6.60;4.15;;;;;;;10.60;68.17;100317.47;8486305;33;20905;-76
2021/10/15 03:47:17;;;;;;;8.00;4.38;;;;;;;10.49;67.81;100309.44;8476321;33;20465;-76
2021/10/15 03:52:22;;;;;;;8.77;3.63;;;;;;;10.55;67.55;100300.88;8448234;34;20437;-76
2021/10/15 03:57:25;;;;;;;8.27;3.88;;;;;;;10.41;67.90;100298.47;8446480;34;20162;-76
2021/10/15 04:02:28;;;;;;;8.18;3.92;;;;;;;10.34;67.93;100288.25;8446459;34;20149;-77
2021/10/15 04:07:32;;;;;;;7.57;3.85;;;;;;;10.26;67.95;100284.47;8469748;33;20625;-75
2021/10/15 04:12:36;;;;;;;8.52;3.90;;;;;;;10.30;67.44;100286.78;8470376;34;20484;-76
2021/10/15 04:17:39;;;;;;;7.57;3.47;;;;;;;10.11;68.28;100274.00;8467807;33;20256;-77
2021/10/15 04:22:44;;;;;;;7.15;4.07;;;;;;;10.21;67.59;100271.44;8468346;34;20444;-77
2021/10/15 04:27:47;;;;;;;10.50;4.20;;;;;;;10.19;67.76;100259.09;8468023;33;20533;-77
2021/10/15 04:32:50;;;;;;;9.55;4.30;;;;;;;10.11;68.12;100259.72;8447434;34;20284;-76
2021/10/15 04:37:54;;;;;;;7.47;4.07;;;;;;;10.26;67.63;100246.91;8467851;33;20157;-77
2021/10/15 04:42:57;;;;;;;7.20;4.40;;;;;;;10.45;67.32;100230.09;8469490;33;20551;-76
2021/10/15 04:48:02;;;;;;;4.65;3.63;;;;;;;10.09;68.18;100229.47;8468042;33;20557;-76
2021/10/15 04:53:09;;;;;;;7.65;4.20;;;;;;;9.97;68.73;100215.22;8461694;34;20456;-75
2021/10/15 04:58:12;;;;;;;8.13;4.57;;;;;;;9.86;69.37;100210.72;8459655;33;20149;-76
2021/10/15 05:03:16;;;;;;;6.80;4.03;;;;;;;10.20;68.37;100199.91;8461998;34;20497;-76
2021/10/15 05:08:22;;;;;;;6.53;4.50;;;;;;;10.07;68.67;100201.91;8474427;33;20437;-75
2021/10/15 05:13:25;;;;;;;6.68;4.82;;;;;;;10.15;69.17;100191.41;8512535;34;20138;-75
2021/10/15 05:18:28;;;;;;;6.25;3.50;;;;;;;9.86;69.78;100165.13;8485342;34;20133;-75
2021/10/15 05:23:32;;;;;;;8.13;5.10;;;;;;;10.07;69.94;100170.56;8499221;34;20145;-76
2021/10/15 05:28:35;;;;;;;8.25;5.13;;;;;;;10.02;70.30;100172.75;8501932;33;20130;-75
2021/10/15 05:33:38;;;;;;;12.18;4.95;;;;;;;9.79;71.09;100169.25;8505659;34;20229;-76
2021/10/15 05:38:42;;;;;;;8.73;4.65;;;;;;;9.91;71.04;100167.44;8525011;33;20138;-76
2021/10/15 05:43:46;;;;;;;8.05;4.40;;;;;;;9.69;71.99;100162.94;8528229;34;20434;-75
2021/10/15 05:48:49;;;;;;;11.82;6.18;;;;;;;9.84;71.91;100142.03;8533511;33;20140;-75
2021/10/15 05:53:56;;;;;;;11.32;5.53;;;;;;;9.81;72.16;100161.06;8533481;34;20110;-75
2021/10/15 05:59:04;;;;;;;9.82;5.60;;;;;;;9.56;72.12;100154.16;8535145;33;20428;-75
2021/10/15 06:04:38;;;;;;;10.55;5.95;;;;;;;9.63;72.85;100153.53;8505719;34;20142;-76
2021/10/15 06:15:04;;;;;;;11.32;6.03;;;;;;;9.72;72.72;100143.91;8486909;33;20405;-76
2021/10/15 06:20:08;;;;;;;9.23;5.00;;;;;;;9.66;72.57;100149.78;8513444;34;20447;-77
2021/10/15 06:25:13;;;;;;;8.38;4.40;;;;;;;9.45;73.42;100146.97;8497797;33;20461;-76
2021/10/15 06:30:16;;;;;;;10.30;5.93;;;;;;;9.59;73.45;100145.88;8509459;34;20204;-77
2021/10/15 06:35:19;;;;;;;11.60;7.07;;;;;;;9.63;73.37;100120.53;8514252;33;20138;-75
2021/10/15 06:40:24;;;;;;;12.35;6.68;;;;;;;9.76;73.09;100128.41;8517764;34;20154;-77
2021/10/15 06:45:27;;;;;;;8.90;6.30;;;;;;;9.61;73.79;100138.56;8512388;33;20153;-76
2021/10/15 06:50:30;;;;;;;12.30;6.55;;;;;;;9.93;73.41;100134.13;8516696;34;20133;-75
2021/10/15 06:55:35;;;;;;;9.52;6.28;;;;;;;9.68;73.64;100148.66;8494231;33;20125;-76
2021/10/15 07:00:38;;;;;;;11.93;6.82;;;;;;;9.54;74.63;100151.59;8518114;34;20153;-76
2021/10/15 07:05:41;;;;;;;12.63;6.50;;;;;;;9.61;74.42;100158.19;8517929;34;20182;-76
2021/10/15 07:10:45;;;;;;;13.15;7.13;;;;;;;9.95;73.36;100144.72;8519251;34;20130;-76
2021/10/15 07:15:49;;;;;;;9.88;5.05;;;;;;;9.70;74.45;100154.75;8518870;33;20451;-76
2021/10/15 07:20:52;;;;;;;10.73;6.90;;;;;;;10.00;73.93;100144.34;8513283;34;20710;-75
2021/10/15 07:25:57;;;;;;;14.25;7.22;;;;;;;10.06;73.90;100135.78;8513595;33;20137;-76
2021/10/15 07:31:00;;;;;;;16.83;7.03;;;;;;;9.89;74.33;100143.41;8520237;34;20161;-76
2021/10/15 07:36:03;;;;;;;11.65;6.22;;;;;;;9.97;74.25;100132.03;8520158;33;20153;-75
2021/10/15 07:41:08;;;;;;;11.20;7.13;;;;;;;10.21;74.21;100134.53;8511972;34;20138;-76
2021/10/15 07:46:11;;;;;;;13.27;7.15;;;;;;;9.96;74.66;100140.22;8510572;33;20477;-76
2021/10/15 07:51:15;;;;;;;10.23;6.47;;;;;;;10.02;74.91;100140.56;8502530;34;20932;-76
2021/10/15 07:56:19;;;;;;;16.45;9.13;;;;;;;10.08;75.08;100148.09;8472461;33;20177;-76
2021/10/15 08:01:22;;;;;;;16.33;9.02;;;;;;;10.19;74.95;100152.56;8467505;34;20961;-76
2021/10/15 08:06:25;;;;;;;18.80;9.15;;;;;;;10.12;75.70;100167.47;8467087;33;20439;-76
2021/10/15 08:11:30;;;;;;;16.98;9.93;;;;;;;10.14;75.94;100170.91;8472089;34;20513;-76
2021/10/15 08:16:33;;;;;;;17.30;9.88;;;;;;;10.07;77.26;100188.50;8468521;33;20679;-76
2021/10/15 08:21:36;;;;;;;20.27;12.25;;;;;;;9.54;80.92;100191.81;8445233;34;20579;-76
2021/10/15 08:26:42;;;;;;;16.95;11.45;;;;;;;9.41;83.12;100224.13;8469720;33;20539;-76
2021/10/15 08:31:46;;;;;;;23.00;11.55;;;;;;;8.95;86.03;100230.38;8472047;34;20534;-76
2021/10/15 08:36:53;;;;;;;20.02;12.57;;;;;;;8.90;87.02;100237.91;8447300;33;20296;-76
2021/10/15 08:41:58;;;;;;;21.33;13.40;;;;;;;9.09;87.04;100248.06;8470637;34;20240;-76
2021/10/15 08:47:01;;;;;;;25.25;14.73;;;;;;;8.92;87.86;100269.94;8472611;33;20411;-76
2021/10/15 08:52:24;;;;;;;19.85;14.40;;;;;;;8.77;88.37;100270.13;8471060;34;20858;-77
2021/10/15 08:57:29;;;;;;;20.00;14.75;;;;;;;9.04;87.38;100277.88;8472257;33;20460;-75
2021/10/15 09:02:32;;;;;;;22.40;14.80;;;;;;;9.32;85.89;100293.66;8473103;34;20179;-75
2021/10/15 09:07:36;;;;;;;20.05;14.23;;;;;;;9.51;85.42;100305.53;8469243;33;20240;-75
2021/10/15 09:12:45;;;;;;;17.13;11.40;;;;;;;9.01;86.84;100323.66;8468771;34;21183;-77
2021/10/15 09:17:50;;;;;;;7.05;5.88;;;;;;;9.40;85.58;100336.81;8470056;33;20459;-77
2021/10/15 09:22:53;;;;;;;3.60;2.10;;;;;;;9.42;84.58;100345.63;8467145;34;20437;-77
2021/10/15 09:27:58;;;;;;;1.40;1.20;;;;;;;9.38;84.60;100363.78;8465768;34;21104;-77
2021/10/15 09:33:02;;;;;;;1.85;1.30;;;;;;;9.57;84.47;100354.28;8465611;34;20164;-77
2021/10/15 09:38:10;;;;;;;2.50;1.27;;;;;;;9.80;84.93;100355.22;8473364;34;20424;-77
2021/10/15 09:43:17;;;;;;;1.05;0.95;;;;;;;9.69;82.83;100366.78;8475006;34;21073;-78
2021/10/15 09:48:24;;;;;;;1.65;1.55;;;;;;;9.74;83.71;100383.38;8476769;34;20226;-77
2021/10/15 09:53:27;;;;;;;1.65;1.55;;;;;;;9.72;84.61;100386.16;8471694;34;20445;-77
2021/10/15 09:58:31;;;;;;;2.38;1.90;;;;;;;9.74;85.34;100396.78;8474682;33;21176;-77
2021/10/15 10:03:37;;;;;;;2.55;1.58;;;;;;;9.85;86.08;100375.34;8447982;34;20426;-76
2021/10/15 10:08:40;;;;;;;3.92;2.30;;;;;;;9.60;85.57;100399.66;8472470;33;20429;-76
2021/10/15 10:13:45;;;;;;;2.30;1.60;;;;;;;9.54;86.15;100414.38;8472440;34;21018;-77
2021/10/15 10:18:54;;;;;;;2.10;1.80;;;;;;;9.05;85.91;100435.03;8450393;34;20554;-75
2021/10/15 10:24:05;;;;;;;0.95;0.90;;;;;;;8.69;84.69;100417.13;8447112;34;20523;-76
2021/10/15 10:29:10;;;;;;;1.05;0.95;;;;;;;9.00;84.52;100425.63;8443477;34;20416;-77
2021/10/15 10:34:23;;;;;;;0.65;0.60;;;;;;;9.34;82.41;100452.59;8462007;34;21011;-76
2021/10/15 10:39:30;;;;;;;2.35;1.00;;;;;;;9.50;79.56;100453.13;8462576;34;20145;-76
2021/10/15 10:44:36;;;;;;;1.25;0.65;;;;;;;9.60;79.97;100456.84;8459077;33;20294;-76
2021/10/15 10:49:40;;;;;;;1.05;1.00;;;;;;;9.80;79.82;100471.41;8462843;34;20152;-76
2021/10/15 10:54:46;;;;;;;1.55;0.80;;;;;;;9.92;79.86;100475.84;8465797;33;20196;-76
2021/10/15 10:59:52;;;;;;;2.83;0.80;;;;;;;11.38;79.41;100468.75;8467044;34;20337;-77
2021/10/15 11:04:58;;;;;;;1.95;0.70;;;;;;;12.47;73.46;100470.25;8460302;33;20546;-77
2021/10/15 11:10:05;;;;;;;0.98;0.77;;;;;;;12.46;72.15;100487.41;8463372;34;20636;-77
2021/10/15 11:15:11;;;;;;;3.40;0.98;;;;;;;13.86;65.57;100492.72;8465567;33;20185;-77
2021/10/15 11:20:18;;;;;;;2.25;0.90;;;;;;;15.04;63.26;100503.06;8465424;34;20152;-76
2021/10/15 11:25:31;;;;;;;1.70;1.02;;;;;;;16.30;68.50;100500.44;8444170;33;20149;-77
2021/10/15 11:30:38;;;;;;;3.47;0.95;;;;;;;18.16;55.14;100503.13;8469278;34;21004;-76
2021/10/15 11:35:43;;;;;;;5.10;1.40;;;;;;;15.79;70.91;100507.44;8462830;33;20703;-76
2021/10/15 11:40:49;;;;;;;5.28;1.00;;;;;;;14.21;62.63;100518.28;8467099;34;20649;-77
2021/10/15 11:45:56;;;;;;;3.80;1.83;;;;;;;14.86;64.55;100515.69;8464958;33;20199;-76
2021/10/15 11:51:01;;;;;;;8.50;1.48;;;;;;;13.42;63.98;100519.28;8464311;34;20518;-76
2021/10/15 11:56:07;;;;;;;4.50;1.70;;;;;;;16.03;64.08;100518.50;8448228;33;20582;-77
2021/10/15 12:01:22;;;;;;;3.10;1.23;;;;;;;18.73;57.08;100505.72;8475835;34;20240;-77
2021/10/15 12:06:30;;;;;;;6.75;1.70;;;;;;;17.96;54.25;100504.44;8467848;33;20665;-77
2021/10/15 12:11:56;;;;;;;6.15;1.70;;;;;;;17.02;61.42;100504.53;8465913;34;20425;-77
2021/10/15 12:17:03;;;;;;;5.07;1.20;;;;;;;15.36;57.04;100517.16;8463809;33;20141;-77
2021/10/15 12:22:10;;;;;;;4.18;1.45;;;;;;;14.47;59.29;100518.53;8466638;34;20227;-77
2021/10/15 12:27:16;;;;;;;4.90;2.38;;;;;;;14.66;68.82;100524.88;8448247;33;20515;-77
2021/10/15 12:32:24;;;;;;;8.20;1.42;;;;;;;17.27;62.26;100514.69;8476258;34;20504;-77
2021/10/15 12:37:34;;;;;;;3.72;1.38;;;;;;;18.86;54.66;100513.34;8476345;33;20209;-78
2021/10/15 12:42:37;;;;;;;4.60;1.38;;;;;;;16.19;53.83;100511.50;8454958;34;20612;-77
2021/10/15 12:47:43;;;;;;;4.30;1.52;;;;;;;14.28;55.53;100516.69;8476218;33;20508;-77
2021/10/15 12:52:46;;;;;;;4.63;2.33;;;;;;;13.22;61.04;100533.69;8471746;34;20141;-77
2021/10/15 12:57:52;;;;;;;4.13;1.55;;;;;;;12.67;62.26;100539.44;8468545;33;20521;-77
2021/10/15 13:03:03;;;;;;;4.45;1.65;;;;;;;11.80;70.90;100557.66;8447509;34;20426;-77
2021/10/15 13:08:06;;;;;;;4.53;1.48;;;;;;;11.53;72.73;100569.72;8446497;34;20430;-77
2021/10/15 13:13:09;;;;;;;8.02;2.88;;;;;;;11.41;73.01;100576.97;8450907;34;20975;-78
2021/10/15 13:18:14;;;;;;;5.60;1.50;;;;;;;10.52;72.30;100585.84;8450568;34;20441;-77
2021/10/15 13:23:18;;;;;;;5.55;1.38;;;;;;;10.27;72.09;100578.81;8474653;34;20931;-77
2021/10/15 13:28:22;;;;;;;3.25;1.50;;;;;;;10.49;75.89;100580.69;8474130;33;20436;-77
2021/10/15 13:33:27;;;;;;;6.72;1.63;;;;;;;10.86;73.63;100593.94;8467752;34;21017;-77
2021/10/15 13:38:31;;;;;;;3.97;2.10;;;;;;;11.31;71.29;100597.50;8469880;33;20410;-78
2021/10/15 13:43:44;;;;;;;5.15;1.45;;;;;;;11.62;73.21;100603.06;8471158;33;20996;-77
2021/10/15 13:54:11;;;;;;;4.85;1.73;;;;;;;16.06;67.78;100607.59;8474188;34;20599;-76
2021/10/15 13:59:18;;;;;;;5.07;1.30;;;;;;;16.91;54.21;100596.25;8472663;33;21139;-76
2021/10/15 14:04:29;;;;;;;5.63;1.77;;;;;;;17.11;54.42;100605.84;8472293;34;20138;-76
2021/10/15 14:09:34;;;;;;;5.40;1.85;;;;;;;17.45;51.94;100602.31;8472358;34;20716;-77
2021/10/15 14:14:38;;;;;;;5.90;1.80;;;;;;;16.66;51.42;100604.22;8448458;33;20461;-77
2021/10/15 14:19:42;;;;;;;7.40;1.63;;;;;;;15.81;55.28;100619.19;8447871;34;20150;-77
2021/10/15 14:24:45;;;;;;;5.75;1.70;;;;;;;15.70;53.95;100612.97;8488733;28;20408;-74
2021/10/15 14:29:48;;;;;;;3.80;1.60;;;;;;;14.92;54.84;100620.59;8515107;33;20492;-74
2021/10/15 14:34:53;;;;;;;5.20;2.38;;;;;;;13.89;58.49;100630.16;8515095;33;20517;-74
2021/10/15 14:39:56;;;;;;;4.60;1.60;;;;;;;12.27;62.77;100626.34;8464528;34;20460;-74
2021/10/15 14:45:00;;;;;;;4.45;1.60;;;;;;;12.44;64.43;100635.72;8469472;33;20785;-74
2021/10/15 14:50:06;;;;;;;6.07;2.03;;;;;;;13.26;63.00;100629.53;8469235;34;20148;-74
2021/10/15 14:55:09;;;;;;;7.65;2.45;;;;;;;13.69;60.72;100631.13;8464618;33;20574;-74
2021/10/15 15:00:13;;;;;;;4.55;2.22;;;;;;;14.15;58.50;100626.91;8459703;34;20956;-74
2021/10/15 15:05:18;;;;;;;5.32;2.05;;;;;;;14.56;57.86;100633.03;8461686;33;21158;-74
2021/10/15 15:10:21;;;;;;;6.45;2.10;;;;;;;14.62;56.66;100635.19;8462647;34;20142;-75
2021/10/15 15:15:38;;;;;;;12.80;2.45;;;;;;;14.22;55.24;100635.31;8463590;33;20585;-75
2021/10/15 15:20:47;;;;;;;5.55;2.20;;;;;;;14.23;55.49;100639.69;8462286;34;20146;-74
2021/10/15 15:25:50;;;;;;;5.90;2.17;;;;;;;14.33;56.60;100646.81;8456585;33;20385;-74
2021/10/15 15:30:53;;;;;;;8.02;2.03;;;;;;;13.16;56.19;100655.59;8459941;34;20518;-75
2021/10/15 15:35:59;;;;;;;5.38;2.13;;;;;;;12.36;58.45;100663.31;8461864;33;20354;-75
2021/10/15 15:41:03;;;;;;;9.48;2.03;;;;;;;12.10;59.59;100668.16;8467622;34;21038;-76
2021/10/15 15:46:07;;;;;;;7.95;2.33;;;;;;;12.06;60.56;100680.16;8468284;33;20649;-76
2021/10/15 15:51:12;;;;;;;6.28;1.85;;;;;;;11.96;61.11;100681.91;8469007;34;20428;-76
2021/10/15 15:56:15;;;;;;;6.40;2.00;;;;;;;11.84;62.23;100683.75;8469980;33;20177;-76
2021/10/15 16:01:18;;;;;;;7.72;2.30;;;;;;;11.56;62.16;100692.38;8475453;34;20149;-76
2021/10/15 16:06:23;;;;;;;7.05;2.25;;;;;;;11.37;63.66;100698.34;8478633;33;20410;-76
2021/10/15 16:11:26;;;;;;;12.75;2.53;;;;;;;11.18;62.59;100707.03;8469218;34;20608;-76
2021/10/15 16:16:30;;;;;;;9.52;2.30;;;;;;;10.68;63.39;100712.63;8470223;33;20411;-76
2021/10/15 16:21:34;;;;;;;10.85;2.78;;;;;;;10.52;64.23;100723.66;8466613;34;20343;-76
2021/10/15 16:26:38;;;;;;;7.00;2.13;;;;;;;10.20;65.27;100734.13;8462744;33;20434;-76
2021/10/15 16:31:41;;;;;;;9.30;2.85;;;;;;;9.94;65.85;100738.72;8463319;34;20164;-76
2021/10/15 16:36:46;;;;;;;7.63;2.20;;;;;;;9.82;67.22;100743.13;8463504;33;20145;-76
2021/10/15 16:41:49;;;;;;;9.15;2.53;;;;;;;9.69;67.06;100753.03;8459699;34;20242;-76
2021/10/15 16:46:52;;;;;;;9.25;3.88;;;;;;;9.46;67.54;100763.56;8460868;34;20652;-76
2021/10/15 16:51:56;;;;;;;5.93;3.03;;;;;;;9.21;68.46;100774.28;8486998;33;20485;-75
2021/10/15 16:57:00;;;;;;;10.67;2.60;;;;;;;9.11;68.91;100774.06;8490071;33;20424;-76
2021/10/15 17:02:03;;;;;;;16.02;2.95;;;;;;;9.11;69.04;100789.28;8463713;34;20863;-76
2021/10/15 17:07:07;;;;;;;7.43;2.40;;;;;;;9.03;68.71;100798.72;8440176;33;20934;-75
2021/10/15 17:12:10;;;;;;;13.02;3.88;;;;;;;8.94;68.88;100803.81;8461817;34;20138;-76
2021/10/15 17:17:14;;;;;;;8.45;3.45;;;;;;;8.79;69.53;100822.66;8458438;33;20653;-76
2021/10/15 17:22:18;;;;;;;7.55;3.38;;;;;;;8.65;69.97;100827.22;8454471;34;20535;-76
2021/10/15 17:27:21;;;;;;;13.23;4.80;;;;;;;8.43;70.69;100827.72;8457347;33;20330;-76
2021/10/15 17:32:24;;;;;;;9.63;3.53;;;;;;;8.24;71.76;100838.75;8460101;34;20441;-75
2021/10/15 17:37:29;;;;;;;6.40;3.65;;;;;;;8.16;72.08;100842.78;8472881;33;20490;-76
2021/10/15 17:42:32;;;;;;;8.45;3.75;;;;;;;8.13;72.24;100845.66;8480428;34;20130;-76
2021/10/15 17:47:35;;;;;;;8.75;3.78;;;;;;;7.98;72.76;100853.78;8478153;33;20190;-76
2021/10/15 17:52:39;;;;;;;11.05;4.80;;;;;;;7.91;72.95;100856.84;8469309;34;20145;-76
2021/10/15 17:57:43;;;;;;;15.93;7.68;;;;;;;7.94;72.26;100862.00;8465284;33;20454;-75
2021/10/15 18:02:46;;;;;;;13.13;5.35;;;;;;;7.85;72.60;100870.59;8462157;34;20232;-75
2021/10/15 18:07:51;;;;;;;16.30;6.88;;;;;;;7.93;72.11;100872.81;8459360;33;20689;-75
2021/10/15 18:12:54;;;;;;;20.88;9.73;;;;;;;7.94;71.96;100875.38;8459536;34;20164;-76
2021/10/15 18:17:57;;;;;;;18.73;11.88;;;;;;;7.89;71.88;100880.16;8457947;33;20142;-76
2021/10/15 18:23:01;;;;;;;43.63;30.70;;;;;;;7.87;72.01;100878.50;8457174;34;20624;-74
2021/10/15 18:28:04;;;;;;;20.10;10.82;;;;;;;7.80;71.83;100871.84;8454314;33;20608;-75
2021/10/15 18:33:07;;;;;;;33.63;20.27;;;;;;;7.74;71.83;100881.09;8459367;34;20439;-75
2021/10/15 18:38:12;;;;;;;150.77;77.72;;;;;;;7.75;71.79;100890.84;8460735;33;20427;-76
2021/10/15 18:43:16;;;;;;;111.53;59.42;;;;;;;7.66;71.76;100886.91;8461285;34;20235;-76
2021/10/15 18:48:19;;;;;;;9.50;5.13;;;;;;;7.57;72.20;100890.16;8466361;33;20173;-75
2021/10/15 18:53:23;;;;;;;25.50;15.27;;;;;;;7.56;71.76;100891.09;8464029;34;20150;-75
2021/10/15 18:58:26;;;;;;;16.25;9.57;;;;;;;7.52;71.29;100886.03;8464436;33;20417;-75
2021/10/15 19:03:29;;;;;;;32.22;21.90;;;;;;;7.52;71.57;100886.91;8464598;34;20413;-76
2021/10/15 19:08:33;;;;;;;39.78;21.83;;;;;;;7.46;71.43;100895.25;8457568;33;20141;-76
2021/10/15 19:13:37;;;;;;;45.92;18.42;;;;;;;7.34;71.70;100901.34;8454438;34;20187;-76
2021/10/15 19:18:40;;;;;;;63.20;40.20;;;;;;;7.27;71.92;100896.38;8455144;33;20142;-75
2021/10/15 19:23:47;;;;;;;18.98;5.78;;;;;;;7.23;72.08;100907.34;8453785;34;20497;-75
2021/10/15 19:28:50;;;;;;;31.83;16.80;;;;;;;7.17;72.42;100905.88;8453965;33;20131;-75
2021/10/15 19:33:53;;;;;;;11.82;6.10;;;;;;;7.13;72.71;100904.34;8454985;34;20421;-75
2021/10/15 19:38:58;;;;;;;16.58;9.27;;;;;;;7.12;72.41;100912.44;8434899;34;20428;-75
2021/10/15 19:44:01;;;;;;;11.85;7.03;;;;;;;7.05;72.91;100925.31;8460754;34;20137;-75
2021/10/15 19:49:04;;;;;;;12.57;5.80;;;;;;;6.90;73.54;100927.03;8457858;33;20203;-75
2021/10/15 19:54:08;;;;;;;12.60;5.35;;;;;;;6.79;74.20;100932.09;8457540;34;20191;-75
2021/10/15 19:59:11;;;;;;;12.80;4.80;;;;;;;6.62;75.23;100931.22;8459323;33;21003;-75
2021/10/15 20:04:14;;;;;;;7.30;3.55;;;;;;;6.47;75.36;100933.88;8463433;34;20430;-75
2021/10/15 20:09:18;;;;;;;12.40;4.88;;;;;;;6.27;76.12;100935.84;8463624;33;20485;-75
2021/10/15 20:14:21;;;;;;;85.22;46.88;;;;;;;6.27;76.17;100938.50;8465001;34;20926;-75
2021/10/15 20:19:24;;;;;;;21.58;12.20;;;;;;;6.33;76.13;100942.66;8464131;33;20482;-74
2021/10/15 20:24:29;;;;;;;15.23;7.25;;;;;;;6.33;75.79;100940.84;8465764;34;20574;-75
2021/10/15 20:29:32;;;;;;;13.43;6.53;;;;;;;6.42;75.70;100944.84;8545448;28;20149;-72
2021/10/15 20:34:35;;;;;;;9.77;4.68;;;;;;;6.46;74.92;100938.38;8522353;33;20286;-73
2021/10/15 20:39:39;;;;;;;10.07;4.50;;;;;;;6.26;75.58;100938.59;8520905;33;20437;-74
2021/10/15 20:44:42;;;;;;;12.18;4.22;;;;;;;6.16;75.99;100948.91;8519707;33;20314;-74
2021/10/15 20:49:45;;;;;;;9.95;4.20;;;;;;;6.05;76.54;100953.94;8517430;33;20602;-73
2021/10/15 20:54:49;;;;;;;10.88;4.30;;;;;;;5.98;76.61;100957.88;8520613;33;20299;-73
2021/10/15 20:59:52;;;;;;;9.50;4.18;;;;;;;5.94;76.59;100962.50;8525264;33;20433;-72
2021/10/15 21:04:55;;;;;;;14.23;4.38;;;;;;;6.04;76.60;100968.25;8537219;33;20418;-71
2021/10/15 21:09:59;;;;;;;7.40;3.92;;;;;;;6.12;76.00;100968.69;8528471;33;20529;-71
2021/10/15 21:15:03;;;;;;;8.43;4.00;;;;;;;6.13;75.83;100975.75;8511646;33;20671;-72
2021/10/15 21:20:09;;;;;;;10.93;4.07;;;;;;;5.85;76.71;100979.84;8529753;33;20141;-72
2021/10/15 21:25:14;;;;;;;10.20;5.25;;;;;;;5.74;77.19;100984.88;8541212;33;20156;-72
2021/10/15 21:30:17;;;;;;;9.70;5.32;;;;;;;5.82;77.55;100992.50;8541064;33;20594;-72
2021/10/15 21:35:20;;;;;;;9.75;4.55;;;;;;;5.87;76.92;100985.97;8539242;33;21068;-73
2021/10/15 21:40:25;;;;;;;11.70;5.03;;;;;;;5.89;76.61;100989.41;8536076;33;20451;-72
2021/10/15 21:45:29;;;;;;;43.28;18.88;;;;;;;5.87;76.52;100993.97;8525749;33;20475;-72
2021/10/15 21:50:32;;;;;;;30.73;14.13;;;;;;;5.86;76.33;100994.91;8524983;33;20683;-73
2021/10/15 21:55:36;;;;;;;26.85;12.38;;;;;;;5.82;75.78;100997.81;8525154;33;20152;-72
2021/10/15 22:00:39;;;;;;;21.15;9.50;;;;;;;5.66;75.83;100998.59;8528722;33;20517;-73
2021/10/15 22:05:43;;;;;;;11.57;5.85;;;;;;;5.72;75.99;101005.41;8539457;33;20164;-73
2021/10/15 22:10:47;;;;;;;13.07;5.30;;;;;;;5.74;75.93;101003.53;8539432;33;20227;-73
2021/10/15 22:15:50;;;;;;;13.80;6.22;;;;;;;5.75;75.93;100999.06;8543533;33;20941;-73
2021/10/15 22:20:54;;;;;;;13.13;5.60;;;;;;;5.75;75.42;100993.75;8544017;33;20430;-73
2021/10/15 22:25:58;;;;;;;12.32;5.30;;;;;;;5.60;75.41;101006.06;8544229;33;20141;-73
2021/10/15 22:31:01;;;;;;;8.23;5.13;;;;;;;5.53;75.89;100997.50;8545209;33;20977;-74
2021/10/15 22:36:05;;;;;;;13.02;6.82;;;;;;;5.53;75.50;101010.81;8543979;33;20513;-73
2021/10/15 22:41:09;;;;;;;20.48;9.45;;;;;;;5.44;75.63;101005.94;8542410;33;20182;-73
2021/10/15 22:46:12;;;;;;;16.73;7.70;;;;;;;5.33;75.40;101006.47;8516010;33;20478;-73
2021/10/15 22:51:15;;;;;;;10.77;5.63;;;;;;;5.24;75.75;101006.94;8544073;33;20439;-72
2021/10/15 22:56:20;;;;;;;10.07;5.60;;;;;;;5.17;75.74;101000.19;8537397;33;20920;-73
2021/10/15 23:01:23;;;;;;;12.98;6.40;;;;;;;5.18;76.10;101002.75;8539157;33;20847;-73
2021/10/15 23:06:26;;;;;;;10.07;5.78;;;;;;;5.20;76.38;100998.22;8543132;33;20141;-73
2021/10/15 23:11:30;;;;;;;13.25;6.18;;;;;;;5.12;76.67;101002.19;8521824;33;20469;-73
2021/10/15 23:16:34;;;;;;;9.20;4.43;;;;;;;5.04;77.65;101002.56;8538797;33;20412;-72
2021/10/15 23:21:37;;;;;;;7.35;4.25;;;;;;;5.09;77.44;101013.00;8530119;33;20229;-72
2021/10/15 23:26:41;;;;;;;11.73;4.63;;;;;;;5.03;77.49;101003.50;8527955;33;20220;-73
2021/10/15 23:31:44;;;;;;;8.87;4.30;;;;;;;4.97;77.05;101007.31;8530104;33;20424;-72
2021/10/15 23:36:47;;;;;;;8.43;4.53;;;;;;;4.99;77.42;101018.78;8526882;33;20588;-72
2021/10/15 23:41:52;;;;;;;6.75;4.57;;;;;;;5.10;77.22;101020.03;8524746;33;21015;-72
2021/10/15 23:46:55;;;;;;;11.60;5.40;;;;;;;5.05;77.13;101021.16;8529667;33;20156;-72